createdAt,value
2022-09-21T00:00:55.170Z,7.65
2022-09-21T00:04:31.560Z,7.93
2022-09-21T00:06:58.708Z,7.75
2022-09-21T00:09:25.660Z,8.65
2022-09-21T00:11:56.363Z,8.45
2022-09-21T00:15:07.222Z,9.02
2022-09-21T00:17:34.918Z,7.57
2022-09-21T00:20:04.046Z,9.13
2022-09-21T00:22:31.384Z,8.32
2022-09-21T00:24:58.211Z,7.53
2022-09-21T00:27:30.226Z,8.35
2022-09-21T00:30:02.655Z,7.40
2022-09-21T00:32:31.572Z,8.63
2022-09-21T00:35:00.324Z,7.57
2022-09-21T00:37:28.052Z,8.43
2022-09-21T00:39:55.256Z,7.57
2022-09-21T00:42:27.557Z,8.32
2022-09-21T00:44:54.533Z,7.88
2022-09-21T00:47:33.677Z,7.32
2022-09-21T00:50:06.022Z,8.18
2022-09-21T00:52:41.782Z,8.55
2022-09-21T00:55:31.110Z,8.63
2022-09-21T00:58:03.122Z,8.13
2022-09-21T01:00:30.080Z,7.78
2022-09-21T01:03:01.424Z,7.55
2022-09-21T01:05:29.027Z,7.70
2022-09-21T01:08:00.004Z,8.35
2022-09-21T01:10:30.034Z,8.65
2022-09-21T01:13:45.195Z,8.43
2022-09-21T01:16:26.730Z,8.73
2022-09-21T01:19:35.013Z,9.18
2022-09-21T01:22:25.800Z,8.23
2022-09-21T01:25:43.598Z,9.35
2022-09-21T01:28:30.366Z,8.43
2022-09-21T01:31:03.348Z,8.18
2022-09-21T01:37:49.395Z,7.78
2022-09-21T01:40:34.539Z,7.63
2022-09-21T01:43:06.980Z,8.13
2022-09-21T01:45:46.522Z,7.68
2022-09-21T01:48:14.861Z,7.90
2022-09-21T01:50:50.386Z,3.35
2022-09-21T01:53:56.331Z,7.97
2022-09-21T01:56:33.092Z,8.20
2022-09-21T01:59:17.696Z,7.95
2022-09-21T02:02:07.268Z,8.40
2022-09-21T02:09:00.080Z,7.72
2022-09-21T02:11:27.120Z,8.10
2022-09-21T02:14:25.138Z,8.70
2022-09-21T02:17:15.225Z,7.38
2022-09-21T02:20:15.189Z,7.72
2022-09-21T02:23:06.624Z,7.80
2022-09-21T02:25:47.395Z,8.25
2022-09-21T02:28:20.982Z,8.45
2022-09-21T02:33:57.600Z,8.18
2022-09-21T02:36:56.971Z,7.80
2022-09-21T02:39:49.980Z,7.55
2022-09-21T02:42:23.446Z,7.38
2022-09-21T02:45:22.657Z,7.90
2022-09-21T02:48:13.376Z,8.25
2022-09-21T02:50:54.047Z,8.13
2022-09-21T02:53:44.308Z,8.45
2022-09-21T02:56:13.275Z,8.07
2022-09-21T02:58:45.481Z,8.30
2022-09-21T03:01:15.148Z,8.70
2022-09-21T03:04:12.835Z,8.25
2022-09-21T03:06:39.823Z,7.85
2022-09-21T03:09:06.778Z,7.95
2022-09-21T03:11:34.133Z,7.10
2022-09-21T03:14:25.988Z,8.30
2022-09-21T03:16:54.052Z,8.00
2022-09-21T03:19:20.923Z,8.27
2022-09-21T03:21:48.088Z,8.20
2022-09-21T03:28:14.891Z,8.48
2022-09-21T03:30:42.461Z,8.13
2022-09-21T03:33:13.084Z,7.90
2022-09-21T03:35:40.367Z,9.02
2022-09-21T03:38:08.170Z,8.73
2022-09-21T03:40:35.262Z,7.85
2022-09-21T03:43:57.523Z,8.13
2022-09-21T03:46:24.775Z,7.88
2022-09-21T03:48:51.753Z,8.43
2022-09-21T03:51:18.624Z,7.68
2022-09-21T03:54:12.998Z,8.82
2022-09-21T03:56:39.930Z,8.43
2022-09-21T03:59:09.545Z,7.75
2022-09-21T04:01:40.133Z,8.27
2022-09-21T04:04:10.285Z,8.15
2022-09-21T04:06:37.410Z,2.55
2022-09-21T04:09:04.367Z,8.20
2022-09-21T04:11:33.457Z,8.50
2022-09-21T04:18:25.771Z,8.68
2022-09-21T04:20:52.710Z,7.82
2022-09-21T04:23:51.653Z,8.60
2022-09-21T04:26:27.671Z,8.25
2022-09-21T04:28:55.522Z,8.57
2022-09-21T04:31:24.034Z,8.43
2022-09-21T04:34:13.230Z,8.50
2022-09-21T04:36:40.784Z,7.93
2022-09-21T04:39:07.898Z,8.32
2022-09-21T04:41:34.852Z,7.85
2022-09-21T04:44:05.516Z,8.82
2022-09-21T04:46:32.581Z,8.85
2022-09-21T04:48:59.910Z,8.63
2022-09-21T04:51:26.965Z,9.07
2022-09-21T04:54:34.702Z,2.70
2022-09-21T04:57:01.656Z,7.75
2022-09-21T04:59:28.574Z,7.93
2022-09-21T05:01:55.539Z,7.78
2022-09-21T05:05:13.740Z,7.78
2022-09-21T05:07:40.786Z,7.90
2022-09-21T05:10:09.207Z,2.40
2022-09-21T05:12:41.025Z,8.38
2022-09-21T05:15:11.488Z,8.43
2022-09-21T05:17:38.755Z,7.50
2022-09-21T05:20:06.195Z,9.18
2022-09-21T05:22:33.202Z,9.35
2022-09-21T05:25:00.499Z,8.82
2022-09-21T05:27:27.579Z,8.48
2022-09-21T05:29:54.941Z,9.15
2022-09-21T05:32:48.823Z,8.50
2022-09-21T05:35:29.220Z,9.30
2022-09-21T05:38:14.445Z,8.63
2022-09-21T05:40:41.812Z,8.27
2022-09-21T05:43:49.639Z,8.52
2022-09-21T05:46:56.458Z,9.02
2022-09-21T05:49:42.025Z,8.15
2022-09-21T05:52:17.865Z,7.82
2022-09-21T05:59:21.939Z,8.32
2022-09-21T06:02:07.361Z,8.60
2022-09-21T06:04:37.892Z,8.65
2022-09-21T06:07:04.855Z,8.60
2022-09-21T06:09:31.788Z,8.55
2022-09-21T06:11:59.454Z,7.80
2022-09-21T06:14:30.295Z,8.73
2022-09-21T06:16:57.292Z,8.35
2022-09-21T06:19:24.237Z,8.73
2022-09-21T06:21:51.236Z,8.60
2022-09-21T06:24:45.141Z,8.35
2022-09-21T06:27:12.208Z,8.10
2022-09-21T06:29:39.181Z,8.25
2022-09-21T06:32:06.257Z,8.98
2022-09-21T06:38:51.850Z,8.82
2022-09-21T06:41:21.211Z,8.93
2022-09-21T06:44:18.012Z,8.95
2022-09-21T06:46:45.049Z,8.80
2022-09-21T06:49:11.984Z,8.40
2022-09-21T06:51:38.942Z,9.32
2022-09-21T06:58:24.832Z,8.13
2022-09-21T07:00:52.053Z,8.20
2022-09-21T07:03:20.169Z,8.95
2022-09-21T07:05:47.250Z,7.90
2022-09-21T07:11:01.430Z,8.45
2022-09-21T07:13:32.516Z,2.67
2022-09-21T07:16:02.905Z,8.45
2022-09-21T07:18:30.378Z,8.20
2022-09-21T07:20:57.749Z,7.72
2022-09-21T07:24:02.327Z,8.30
2022-09-21T07:26:29.299Z,8.27
2022-09-21T07:28:56.331Z,9.13
2022-09-21T07:31:23.392Z,8.32
2022-09-21T07:33:58.079Z,8.27
2022-09-21T07:36:25.708Z,8.30
2022-09-21T07:38:54.078Z,9.48
2022-09-21T07:41:21.605Z,8.45
2022-09-21T07:43:49.967Z,8.10
2022-09-21T07:46:17.062Z,8.75
2022-09-21T07:48:44.134Z,8.55
2022-09-21T07:51:13.695Z,9.15
2022-09-21T07:54:09.574Z,8.88
2022-09-21T07:56:37.725Z,9.05
2022-09-21T07:59:07.794Z,8.73
2022-09-21T08:01:40.060Z,9.20
2022-09-21T08:04:46.064Z,8.55
2022-09-21T08:07:13.373Z,7.95
2022-09-21T08:09:41.021Z,8.63
2022-09-21T08:12:09.039Z,8.63
2022-09-21T08:14:55.032Z,8.30
2022-09-21T08:17:22.559Z,8.77
2022-09-21T08:19:49.741Z,8.98
2022-09-21T08:22:16.966Z,9.10
2022-09-21T08:25:35.529Z,8.93
2022-09-21T08:28:06.115Z,9.10
2022-09-21T08:30:35.909Z,9.02
2022-09-21T08:33:34.746Z,9.00
2022-09-21T08:36:02.621Z,8.95
2022-09-21T08:38:35.180Z,9.13
2022-09-21T08:41:12.608Z,9.40
2022-09-21T08:43:45.563Z,9.40
2022-09-21T08:46:25.398Z,8.93
2022-09-21T08:49:04.005Z,9.05
2022-09-21T08:51:44.480Z,8.82
2022-09-21T08:54:53.820Z,9.13
2022-09-21T08:57:23.002Z,8.55
2022-09-21T08:59:50.696Z,10.35
2022-09-21T09:02:39.335Z,10.07
2022-09-21T09:05:31.112Z,9.23
2022-09-21T09:08:07.564Z,10.38
2022-09-21T09:10:38.746Z,10.80
2022-09-21T09:13:08.345Z,11.32
2022-09-21T09:16:00.181Z,11.43
2022-09-21T09:18:43.651Z,11.85
2022-09-21T09:21:32.686Z,11.27
2022-09-21T09:24:16.387Z,12.43
2022-09-21T09:26:53.536Z,10.52
2022-09-21T09:29:45.728Z,13.32
2022-09-21T09:32:16.278Z,12.93
2022-09-21T09:34:55.265Z,13.20
2022-09-21T09:37:30.945Z,13.02
2022-09-21T09:40:00.868Z,12.75
2022-09-21T09:42:54.161Z,13.25
2022-09-21T09:45:37.031Z,10.30
2022-09-21T09:48:09.981Z,11.40
2022-09-21T09:50:40.471Z,11.18
2022-09-21T09:53:38.013Z,9.38
2022-09-21T09:56:05.439Z,9.73
2022-09-21T09:58:50.095Z,9.82
2022-09-21T10:01:42.471Z,9.13
2022-09-21T10:04:15.148Z,9.20
2022-09-21T10:06:46.350Z,9.70
2022-09-21T10:09:29.299Z,8.95
2022-09-21T10:12:01.305Z,9.82
2022-09-21T10:14:32.935Z,8.45
2022-09-21T10:17:08.102Z,9.02
2022-09-21T10:19:35.671Z,8.55
2022-09-21T10:22:05.074Z,9.13
2022-09-21T10:24:40.647Z,8.90
2022-09-21T10:27:13.587Z,9.77
2022-09-21T10:29:46.407Z,8.63
2022-09-21T10:32:14.940Z,10.50
2022-09-21T10:35:00.912Z,8.90
2022-09-21T10:37:30.247Z,7.65
2022-09-21T10:39:57.405Z,9.40
2022-09-21T10:42:24.563Z,9.77
2022-09-21T10:45:04.556Z,9.63
2022-09-21T10:47:36.785Z,9.07
2022-09-21T10:50:23.564Z,9.57
2022-09-21T10:53:09.580Z,8.98
2022-09-21T10:55:52.599Z,8.90
2022-09-21T10:58:26.216Z,7.43
2022-09-21T11:00:55.713Z,8.70
2022-09-21T11:04:01.037Z,8.32
2022-09-21T11:06:37.753Z,8.95
2022-09-21T11:09:32.686Z,8.45
2022-09-21T11:12:25.450Z,8.18
2022-09-21T11:15:47.418Z,8.20
2022-09-21T11:18:47.531Z,8.02
2022-09-21T11:21:47.916Z,7.47
2022-09-21T11:24:48.436Z,8.63
2022-09-21T11:27:27.433Z,7.97
2022-09-21T11:30:07.329Z,6.50
2022-09-21T11:33:02.250Z,7.82
2022-09-21T11:35:32.934Z,7.28
2022-09-21T11:38:00.059Z,7.10
2022-09-21T11:41:03.577Z,7.85
2022-09-21T11:47:52.716Z,6.28
2022-09-21T11:58:00.129Z,6.25
2022-09-21T12:00:34.181Z,7.10
2022-09-21T12:03:42.470Z,7.05
2022-09-21T12:06:27.649Z,8.00
2022-09-21T12:09:06.544Z,6.18
2022-09-21T12:11:44.416Z,5.72
2022-09-21T12:14:43.585Z,6.68
2022-09-21T12:17:49.557Z,6.32
2022-09-21T12:20:36.037Z,4.97
2022-09-21T12:23:17.240Z,5.60
2022-09-21T12:25:52.119Z,4.72
2022-09-21T12:28:37.576Z,4.30
2022-09-21T12:31:35.751Z,4.53
2022-09-21T12:34:22.840Z,4.75
2022-09-21T12:37:18.971Z,4.45
2022-09-21T12:39:58.620Z,4.28
2022-09-21T12:42:51.011Z,4.60
2022-09-21T12:45:34.905Z,5.30
2022-09-21T12:48:25.392Z,5.15
2022-09-21T12:51:03.673Z,4.72
2022-09-21T12:53:38.787Z,4.05
2022-09-21T12:59:01.194Z,4.65
2022-09-21T13:01:40.602Z,4.47
2022-09-21T13:04:35.499Z,4.47
2022-09-21T13:07:23.966Z,4.60
2022-09-21T13:09:52.042Z,4.53
2022-09-21T13:12:29.784Z,4.70
2022-09-21T13:15:16.747Z,5.03
2022-09-21T13:17:43.764Z,4.50
2022-09-21T13:20:21.463Z,4.53
2022-09-21T13:23:16.362Z,4.35
2022-09-21T13:25:59.022Z,5.22
2022-09-21T13:28:53.186Z,4.70
2022-09-21T13:31:41.913Z,4.50
2022-09-21T13:34:20.723Z,3.85
2022-09-21T13:37:19.690Z,3.88
2022-09-21T13:40:01.684Z,4.90
2022-09-21T13:42:34.815Z,3.73
2022-09-21T13:45:24.039Z,3.60
2022-09-21T13:47:54.448Z,3.10
2022-09-21T13:50:32.672Z,3.65
2022-09-21T13:53:03.833Z,3.50
2022-09-21T13:55:39.129Z,3.55
2022-09-21T13:58:25.831Z,4.20
2022-09-21T14:01:00.503Z,4.43
2022-09-21T14:03:38.398Z,4.45
2022-09-21T14:06:10.403Z,3.85
2022-09-21T14:08:41.894Z,3.90
2022-09-21T14:11:28.363Z,4.40
2022-09-21T14:14:37.137Z,4.13
2022-09-21T14:17:07.128Z,4.15
2022-09-21T14:19:34.040Z,4.45
2022-09-21T14:22:03.977Z,4.32
2022-09-21T14:24:51.338Z,4.80
2022-09-21T14:27:33.346Z,4.18
2022-09-21T14:30:17.833Z,4.75
2022-09-21T14:32:56.304Z,5.13
2022-09-21T14:35:30.266Z,3.40
2022-09-21T14:38:19.594Z,3.90
2022-09-21T14:40:57.493Z,4.70
2022-09-21T14:44:08.336Z,4.43
2022-09-21T14:47:00.945Z,3.67
2022-09-21T14:49:57.650Z,3.70
2022-09-21T14:52:43.515Z,3.30
2022-09-21T14:55:47.271Z,3.47
2022-09-21T15:01:42.124Z,3.70
2022-09-21T15:05:14.529Z,3.67
2022-09-21T15:08:35.262Z,3.83
2022-09-21T15:11:29.308Z,3.78
2022-09-21T15:14:29.287Z,3.42
2022-09-21T15:16:56.276Z,3.65
2022-09-21T15:19:35.112Z,3.47
2022-09-21T15:25:06.061Z,3.97
2022-09-21T15:28:19.334Z,3.85
2022-09-21T15:30:57.244Z,4.20
2022-09-21T15:42:31.384Z,4.70
2022-09-21T16:05:56.078Z,5.38
2022-09-21T16:08:36.953Z,5.22
2022-09-21T16:11:15.027Z,4.85
2022-09-21T16:14:55.136Z,4.78
2022-09-21T16:17:27.631Z,4.28
2022-09-21T16:19:54.618Z,5.00
2022-09-21T16:22:31.201Z,4.35
2022-09-21T16:52:44.767Z,4.20
2022-09-21T17:15:01.591Z,3.90
2022-09-21T17:34:12.486Z,4.88
2022-09-21T17:50:19.184Z,4.63
2022-09-21T17:55:56.175Z,5.70
2022-09-21T18:02:44.425Z,5.50
2022-09-21T18:05:32.070Z,7.05
2022-09-21T18:07:59.562Z,6.25
2022-09-21T18:10:31.078Z,6.80
2022-09-21T18:17:39.658Z,5.82
2022-09-21T18:20:38.569Z,6.18
2022-09-21T18:24:03.433Z,5.57
2022-09-21T18:26:33.231Z,6.13
2022-09-21T18:29:28.526Z,5.78
2022-09-21T18:36:58.890Z,6.97
2022-09-21T18:43:54.158Z,7.38
2022-09-21T18:51:39.117Z,7.30
2022-09-21T18:58:19.561Z,7.68
2022-09-21T19:00:48.155Z,7.65
2022-09-21T19:03:19.240Z,9.02
2022-09-21T19:06:26.375Z,8.38
2022-09-21T19:09:12.033Z,7.50
2022-09-21T19:11:49.866Z,8.25
2022-09-21T19:14:35.278Z,8.30
2022-09-21T19:17:14.207Z,9.10
2022-09-21T19:19:47.105Z,9.55
2022-09-21T19:22:20.356Z,7.85
2022-09-21T19:25:38.614Z,7.95
2022-09-21T19:28:13.405Z,9.25
2022-09-21T19:30:41.961Z,7.93
2022-09-21T19:34:18.810Z,8.05
2022-09-21T19:36:50.249Z,8.02
2022-09-21T19:39:17.488Z,8.05
2022-09-21T19:42:30.200Z,8.77
2022-09-21T19:45:28.362Z,9.25
2022-09-21T19:48:03.192Z,8.88
2022-09-21T19:50:40.955Z,8.57
2022-09-21T19:57:52.800Z,8.63
2022-09-21T20:00:21.165Z,8.60
2022-09-21T20:03:20.408Z,8.85
2022-09-21T20:06:12.168Z,9.20
2022-09-21T20:08:56.023Z,8.98
2022-09-21T20:11:41.611Z,8.35
2022-09-21T20:14:13.348Z,7.55
2022-09-21T20:16:52.703Z,7.75
2022-09-21T20:19:46.442Z,7.13
2022-09-21T20:22:35.964Z,8.07
2022-09-21T20:25:20.536Z,8.48
2022-09-21T20:27:50.949Z,8.68
2022-09-21T20:30:24.729Z,7.00
2022-09-21T20:32:57.975Z,8.27
2022-09-21T20:35:33.069Z,8.82
2022-09-21T20:38:02.703Z,9.07
2022-09-21T20:40:32.245Z,7.93
2022-09-21T20:43:22.089Z,9.23
2022-09-21T20:45:50.455Z,8.05
2022-09-21T20:48:17.656Z,7.38
2022-09-21T20:50:48.038Z,9.23
2022-09-21T20:53:34.363Z,9.00
2022-09-21T20:56:02.320Z,8.60
2022-09-21T20:58:33.776Z,9.18
2022-09-21T21:01:06.904Z,9.10
2022-09-21T21:04:04.950Z,9.52
2022-09-21T21:06:31.962Z,7.93
2022-09-21T21:08:59.077Z,9.23
2022-09-21T21:11:28.057Z,8.95
2022-09-21T21:13:56.641Z,8.48
2022-09-21T21:16:24.029Z,9.50
2022-09-21T21:18:51.192Z,8.73
2022-09-21T21:21:18.152Z,9.32
2022-09-21T21:24:09.268Z,8.63
2022-09-21T21:27:00.066Z,10.10
2022-09-21T21:29:24.984Z,9.82
2022-09-21T21:31:52.069Z,8.40
2022-09-21T21:35:03.376Z,8.60
2022-09-21T21:37:30.396Z,8.55
2022-09-21T21:39:57.706Z,8.68
2022-09-21T21:42:25.365Z,9.65
2022-09-21T21:44:53.431Z,10.07
2022-09-21T21:47:38.805Z,8.20
2022-09-21T21:50:07.188Z,9.68
2022-09-21T21:52:34.085Z,9.18
2022-09-21T21:55:02.482Z,9.15
2022-09-21T21:57:29.622Z,9.55
2022-09-21T21:59:56.744Z,9.63
2022-09-21T22:02:24.341Z,9.82
2022-09-21T22:05:57.900Z,9.50
2022-09-21T22:08:28.456Z,9.60
2022-09-21T22:10:55.454Z,9.70
2022-09-21T22:17:11.395Z,9.13
2022-09-21T22:19:38.503Z,8.13
2022-09-21T22:22:05.717Z,8.82
2022-09-21T22:24:35.764Z,8.73
2022-09-21T22:27:02.685Z,8.82
2022-09-21T22:29:29.559Z,8.82
2022-09-21T22:31:57.008Z,9.43
2022-09-21T22:35:14.903Z,8.93
2022-09-21T22:37:41.823Z,9.32
2022-09-21T22:40:10.172Z,9.02
2022-09-21T22:42:37.384Z,8.60
2022-09-21T22:45:04.557Z,9.57
2022-09-21T22:47:31.555Z,9.07
2022-09-21T22:49:58.789Z,7.88
2022-09-21T22:52:25.604Z,8.55
2022-09-21T22:55:22.249Z,8.82
2022-09-21T22:57:50.382Z,8.05
2022-09-21T23:00:17.319Z,8.50
2022-09-21T23:02:46.387Z,8.18
2022-09-21T23:05:13.243Z,8.43
2022-09-21T23:07:40.122Z,7.82
2022-09-21T23:10:07.563Z,8.23
2022-09-21T23:12:34.548Z,8.60
2022-09-21T23:15:01.476Z,7.55
2022-09-21T23:17:29.083Z,8.75
2022-09-21T23:19:55.957Z,8.20
2022-09-21T23:22:22.860Z,8.50
2022-09-21T23:24:53.232Z,8.25
2022-09-21T23:27:20.085Z,8.38
2022-09-21T23:29:46.928Z,7.63
2022-09-21T23:32:13.781Z,6.97
2022-09-21T23:34:43.594Z,8.00
2022-09-21T23:37:10.480Z,8.13
2022-09-21T23:39:37.861Z,8.32
2022-09-21T23:42:04.912Z,8.23
2022-09-21T23:44:31.960Z,7.63
2022-09-21T23:46:58.904Z,7.47
2022-09-21T23:49:25.793Z,8.10
2022-09-21T23:51:52.701Z,7.32
2022-09-21T23:54:19.617Z,8.32
2022-09-21T23:56:46.887Z,7.85
2022-09-21T23:59:13.826Z,7.63
